createdAt,value
2017-06-03T00:00:14.156Z,18.84
2017-06-03T00:01:15.583Z,18.73
2017-06-03T00:02:17.014Z,18.82
2017-06-03T00:03:18.438Z,18.99
2017-06-03T00:04:19.866Z,18.94
2017-06-03T00:05:21.295Z,18.97
2017-06-03T00:06:22.729Z,18.94
2017-06-03T00:07:24.156Z,18.83
2017-06-03T00:08:25.584Z,18.80
2017-06-03T00:09:27.013Z,18.87
2017-06-03T00:10:28.437Z,18.82
2017-06-03T00:11:29.864Z,18.84
2017-06-03T00:12:31.298Z,18.86
2017-06-03T00:13:32.725Z,18.79
2017-06-03T00:14:34.156Z,18.90
2017-06-03T00:15:35.588Z,18.91
2017-06-03T00:16:37.027Z,18.87
2017-06-03T00:17:38.455Z,18.84
2017-06-03T00:18:39.886Z,18.64
2017-06-03T00:19:41.315Z,18.59
2017-06-03T00:20:42.739Z,18.54
2017-06-03T00:21:44.162Z,18.52
2017-06-03T00:22:45.589Z,18.47
2017-06-03T00:23:47.030Z,18.43
2017-06-03T00:24:48.460Z,18.42
2017-06-03T00:25:49.889Z,18.39
2017-06-03T00:26:51.331Z,18.29
2017-06-03T00:27:52.756Z,18.29
2017-06-03T00:28:54.184Z,18.29
2017-06-03T00:29:55.611Z,18.33
2017-06-03T00:30:57.045Z,18.46
2017-06-03T00:31:58.483Z,18.62
2017-06-03T00:32:59.912Z,18.90
2017-06-03T00:34:01.343Z,18.95
2017-06-03T00:35:02.862Z,18.86
2017-06-03T00:36:04.287Z,18.80
2017-06-03T00:37:05.719Z,18.87
2017-06-03T00:38:07.147Z,18.65
2017-06-03T00:39:08.585Z,18.57
2017-06-03T00:40:10.005Z,18.46
2017-06-03T00:41:11.439Z,18.46
2017-06-03T00:42:12.870Z,18.47
2017-06-03T00:43:14.293Z,18.36
2017-06-03T00:44:15.729Z,18.25
2017-06-03T00:45:17.159Z,18.13
2017-06-03T00:46:18.594Z,18.33
2017-06-03T00:47:20.037Z,18.33
2017-06-03T00:48:21.462Z,18.39
2017-06-03T00:49:22.900Z,18.46
2017-06-03T00:50:24.324Z,18.54
2017-06-03T00:51:25.755Z,18.83
2017-06-03T00:52:27.187Z,18.94
2017-06-03T00:53:28.609Z,19.01
2017-06-03T00:54:30.038Z,18.91
2017-06-03T00:55:31.470Z,18.90
2017-06-03T00:56:32.895Z,18.92
2017-06-03T00:57:34.361Z,18.97
2017-06-03T00:58:36.061Z,18.95
2017-06-03T00:59:37.530Z,18.91
2017-06-03T01:00:38.966Z,18.97
2017-06-03T01:01:40.392Z,18.91
2017-06-03T01:02:41.818Z,19.01
2017-06-03T01:03:43.256Z,18.97
2017-06-03T01:04:44.682Z,19.01
2017-06-03T01:05:46.117Z,19.14
2017-06-03T01:06:47.549Z,19.13
2017-06-03T01:07:48.982Z,19.10
2017-06-03T01:08:50.402Z,19.06
2017-06-03T01:09:51.828Z,19.06
2017-06-03T01:10:53.259Z,19.05
2017-06-03T01:11:54.680Z,19.01
2017-06-03T01:12:56.104Z,19.05
2017-06-03T01:13:57.537Z,19.11
2017-06-03T01:14:58.966Z,19.20
2017-06-03T01:16:00.394Z,19.13
2017-06-03T01:17:01.816Z,19.13
2017-06-03T01:18:03.249Z,19.11
2017-06-03T01:19:04.675Z,19.05
2017-06-03T01:20:06.102Z,19.05
2017-06-03T01:21:07.525Z,19.08
2017-06-03T01:22:08.953Z,19.02
2017-06-03T01:23:10.381Z,18.99
2017-06-03T01:24:11.809Z,19.05
2017-06-03T01:25:13.242Z,18.79
2017-06-03T01:26:14.670Z,18.86
2017-06-03T01:27:16.096Z,18.99
2017-06-03T01:28:17.525Z,18.94
2017-06-03T01:29:18.953Z,18.91
2017-06-03T01:30:20.382Z,19.05
2017-06-03T01:31:21.807Z,19.08
2017-06-03T01:32:23.239Z,19.08
2017-06-03T01:33:24.670Z,19.08
2017-06-03T01:34:26.099Z,18.84
2017-06-03T01:35:27.527Z,18.90
2017-06-03T01:36:28.954Z,18.98
2017-06-03T01:37:30.383Z,19.14
2017-06-03T01:38:31.806Z,19.18
2017-06-03T01:39:33.234Z,19.05
2017-06-03T01:40:34.659Z,18.87
2017-06-03T01:41:36.084Z,18.83
2017-06-03T01:42:37.519Z,18.61
2017-06-03T01:43:38.948Z,18.65
2017-06-03T01:44:40.373Z,18.67
2017-06-03T01:45:41.803Z,18.68
2017-06-03T01:46:43.239Z,18.65
2017-06-03T01:47:44.674Z,18.61
2017-06-03T01:48:46.104Z,18.83
2017-06-03T01:49:47.536Z,18.95
2017-06-03T01:50:48.965Z,18.91
2017-06-03T01:51:50.391Z,18.91
2017-06-03T01:52:51.819Z,19.01
2017-06-03T01:53:53.246Z,18.98
2017-06-03T01:54:54.676Z,19.05
2017-06-03T01:55:56.106Z,18.92
2017-06-03T01:56:57.529Z,18.98
2017-06-03T01:57:58.962Z,19.10
2017-06-03T01:59:00.397Z,18.98
2017-06-03T02:00:02.579Z,18.95
2017-06-03T02:01:04.007Z,18.65
2017-06-03T02:02:05.475Z,18.97
2017-06-03T02:03:06.895Z,19.08
2017-06-03T02:04:08.322Z,19.08
2017-06-03T02:05:09.751Z,19.02
2017-06-03T02:06:11.176Z,18.97
2017-06-03T02:07:12.615Z,19.10
2017-06-03T02:08:14.044Z,19.08
2017-06-03T02:09:15.464Z,19.02
2017-06-03T02:10:16.894Z,19.01
2017-06-03T02:11:18.319Z,19.01
2017-06-03T02:12:19.751Z,19.02
2017-06-03T02:13:21.172Z,19.01
2017-06-03T02:14:22.608Z,18.95
2017-06-03T02:15:24.047Z,18.84
2017-06-03T02:16:25.473Z,18.76
2017-06-03T02:17:26.894Z,18.70
2017-06-03T02:18:28.316Z,18.76
2017-06-03T02:19:29.746Z,18.94
2017-06-03T02:20:31.179Z,19.08
2017-06-03T02:21:32.600Z,19.10
2017-06-03T02:22:34.027Z,19.11
2017-06-03T02:23:35.450Z,19.14
2017-06-03T02:24:36.879Z,19.18
2017-06-03T02:25:38.301Z,18.98
2017-06-03T02:26:39.734Z,18.97
2017-06-03T02:27:41.156Z,18.80
2017-06-03T02:28:42.588Z,18.84
2017-06-03T02:29:44.012Z,18.91
2017-06-03T02:30:45.444Z,18.87
2017-06-03T02:31:46.872Z,18.92
2017-06-03T02:32:48.302Z,18.90
2017-06-03T02:33:49.726Z,18.83
2017-06-03T02:34:51.174Z,18.79
2017-06-03T02:35:52.602Z,18.91
2017-06-03T02:36:54.026Z,19.02
2017-06-03T02:37:55.454Z,18.90
2017-06-03T02:38:56.882Z,18.76
2017-06-03T02:39:58.302Z,18.77
2017-06-03T02:40:59.732Z,18.70
2017-06-03T02:42:01.158Z,18.72
2017-06-03T02:43:02.584Z,18.67
2017-06-03T02:44:04.027Z,18.62
2017-06-03T02:45:05.461Z,18.65
2017-06-03T02:46:07.612Z,18.58
2017-06-03T02:47:09.045Z,18.65
2017-06-03T02:48:10.473Z,18.67
2017-06-03T02:49:11.899Z,18.80
2017-06-03T02:50:13.329Z,18.84
2017-06-03T02:51:14.758Z,18.92
2017-06-03T02:52:16.184Z,18.94
2017-06-03T02:53:17.610Z,18.97
2017-06-03T02:54:19.082Z,18.84
2017-06-03T02:55:20.506Z,19.02
2017-06-03T02:56:21.933Z,19.21
2017-06-03T02:57:23.366Z,19.14
2017-06-03T02:58:24.789Z,19.17
2017-06-03T02:59:26.214Z,19.20
2017-06-03T03:00:27.644Z,19.18
2017-06-03T03:01:29.069Z,19.13
2017-06-03T03:02:30.495Z,19.05
2017-06-03T03:03:31.923Z,19.06
2017-06-03T03:04:33.354Z,19.13
2017-06-03T03:05:34.794Z,19.08
2017-06-03T03:06:36.335Z,19.11
2017-06-03T03:07:37.770Z,18.99
2017-06-03T03:08:39.192Z,19.02
2017-06-03T03:09:40.625Z,18.97
2017-06-03T03:10:42.056Z,19.08
2017-06-03T03:11:43.489Z,19.14
2017-06-03T03:12:44.913Z,19.13
2017-06-03T03:13:46.343Z,19.28
2017-06-03T03:14:47.780Z,19.15
2017-06-03T03:15:49.203Z,19.11
2017-06-03T03:16:50.632Z,19.17
2017-06-03T03:17:52.063Z,19.08
2017-06-03T03:18:53.488Z,18.99
2017-06-03T03:19:54.915Z,18.94
2017-06-03T03:20:56.340Z,18.87
2017-06-03T03:21:57.774Z,18.92
2017-06-03T03:22:59.207Z,18.99
2017-06-03T03:24:00.635Z,19.14
2017-06-03T03:25:02.064Z,19.13
2017-06-03T03:26:03.494Z,19.05
2017-06-03T03:27:04.923Z,18.95
2017-06-03T03:28:06.345Z,18.87
2017-06-03T03:29:07.771Z,18.86
2017-06-03T03:30:09.203Z,18.86
2017-06-03T03:31:10.640Z,18.87
2017-06-03T03:32:12.072Z,18.84
2017-06-03T03:33:13.497Z,18.87
2017-06-03T03:34:14.925Z,18.77
2017-06-03T03:35:16.361Z,18.87
2017-06-03T03:36:17.789Z,19.08
2017-06-03T03:37:19.215Z,18.95
2017-06-03T03:38:20.648Z,19.05
2017-06-03T03:39:22.079Z,19.15
2017-06-03T03:40:23.507Z,18.99
2017-06-03T03:41:24.942Z,18.79
2017-06-03T03:42:26.375Z,18.72
2017-06-03T03:43:27.806Z,18.72
2017-06-03T03:44:29.245Z,18.84
2017-06-03T03:45:30.660Z,18.94
2017-06-03T03:46:32.094Z,19.10
2017-06-03T03:47:33.525Z,18.94
2017-06-03T03:48:34.958Z,18.83
2017-06-03T03:49:36.386Z,18.98
2017-06-03T03:50:37.813Z,19.05
2017-06-03T03:51:39.244Z,19.11
2017-06-03T03:52:40.674Z,18.91
2017-06-03T03:53:42.097Z,19.06
2017-06-03T03:54:43.530Z,18.95
2017-06-03T03:55:44.961Z,19.05
2017-06-03T03:56:46.387Z,19.29
2017-06-03T03:57:47.810Z,19.08
2017-06-03T03:58:49.242Z,19.06
2017-06-03T03:59:50.680Z,19.15
2017-06-03T04:00:52.109Z,19.05
2017-06-03T04:01:53.548Z,19.06
2017-06-03T04:02:54.971Z,19.15
2017-06-03T04:03:56.405Z,19.33
2017-06-03T04:04:57.838Z,19.25
2017-06-03T04:05:59.267Z,19.17
2017-06-03T04:07:00.701Z,19.02
2017-06-03T04:08:02.122Z,18.99
2017-06-03T04:09:03.550Z,19.15
2017-06-03T04:10:04.981Z,19.13
2017-06-03T04:11:06.422Z,19.02
2017-06-03T04:12:07.854Z,19.10
2017-06-03T04:13:09.290Z,19.15
2017-06-03T04:14:10.723Z,19.08
2017-06-03T04:15:12.148Z,19.11
2017-06-03T04:16:13.573Z,19.14
2017-06-03T04:17:15.003Z,19.20
2017-06-03T04:18:16.431Z,19.05
2017-06-03T04:19:17.862Z,19.08
2017-06-03T04:20:19.286Z,19.02
2017-06-03T04:21:20.717Z,19.06
2017-06-03T04:22:22.150Z,19.21
2017-06-03T04:23:23.572Z,19.08
2017-06-03T04:24:25.002Z,19.01
2017-06-03T04:25:26.431Z,19.06
2017-06-03T04:26:27.859Z,19.02
2017-06-03T04:27:29.286Z,19.21
2017-06-03T04:28:30.713Z,19.13
2017-06-03T04:29:32.146Z,19.10
2017-06-03T04:30:33.589Z,19.14
2017-06-03T04:31:35.015Z,19.21
2017-06-03T04:32:36.447Z,19.32
2017-06-03T04:33:37.874Z,19.32
2017-06-03T04:34:39.306Z,19.25
2017-06-03T04:35:40.733Z,19.50
2017-06-03T04:36:42.156Z,19.18
2017-06-03T04:37:43.588Z,19.31
2017-06-03T04:38:45.013Z,19.32
2017-06-03T04:39:46.440Z,19.38
2017-06-03T04:40:47.873Z,19.33
2017-06-03T04:41:49.305Z,19.43
2017-06-03T04:42:50.737Z,19.46
2017-06-03T04:43:52.171Z,19.57
2017-06-03T04:44:53.597Z,19.53
2017-06-03T04:45:55.028Z,19.46
2017-06-03T04:46:56.455Z,19.51
2017-06-03T04:47:57.889Z,19.43
2017-06-03T04:48:59.316Z,19.47
2017-06-03T04:50:01.437Z,19.35
2017-06-03T04:51:02.867Z,19.42
2017-06-03T04:52:04.294Z,19.28
2017-06-03T04:53:05.796Z,19.20
2017-06-03T04:54:07.251Z,19.14
2017-06-03T04:55:08.689Z,19.06
2017-06-03T04:56:10.114Z,18.77
2017-06-03T04:57:11.549Z,18.84
2017-06-03T04:58:12.999Z,19.08
2017-06-03T04:59:14.421Z,19.14
2017-06-03T05:00:15.862Z,19.20
2017-06-03T05:01:17.316Z,19.24
2017-06-03T05:02:18.747Z,19.38
2017-06-03T05:03:20.171Z,19.28
2017-06-03T05:04:21.615Z,19.20
2017-06-03T05:05:23.050Z,19.35
2017-06-03T05:06:24.480Z,19.33
2017-06-03T05:07:25.911Z,19.28
2017-06-03T05:08:27.351Z,19.33
2017-06-03T05:09:28.867Z,19.33
2017-06-03T05:10:30.307Z,19.39
2017-06-03T05:11:31.746Z,19.43
2017-06-03T05:12:33.190Z,19.43
2017-06-03T05:13:34.625Z,19.38
2017-06-03T05:14:36.057Z,19.28
2017-06-03T05:15:37.504Z,19.36
2017-06-03T05:16:38.946Z,19.32
2017-06-03T05:17:40.374Z,19.17
2017-06-03T05:18:41.816Z,19.14
2017-06-03T05:19:43.248Z,19.11
2017-06-03T05:20:44.684Z,19.14
2017-06-03T05:21:46.116Z,19.13
2017-06-03T05:22:47.550Z,19.18
2017-06-03T05:23:48.982Z,19.25
2017-06-03T05:24:50.414Z,19.29
2017-06-03T05:25:51.841Z,19.23
2017-06-03T05:26:53.268Z,19.32
2017-06-03T05:27:54.697Z,19.32
2017-06-03T05:28:56.130Z,19.28
2017-06-03T05:29:57.566Z,19.17
2017-06-03T05:30:59.006Z,19.24
2017-06-03T05:32:00.436Z,19.17
2017-06-03T05:33:01.866Z,19.33
2017-06-03T05:34:03.295Z,19.28
2017-06-03T05:35:04.731Z,19.32
2017-06-03T05:36:06.175Z,19.24
2017-06-03T05:37:07.598Z,19.28
2017-06-03T05:38:09.028Z,19.13
2017-06-03T05:39:10.463Z,19.13
2017-06-03T05:40:11.896Z,19.06
2017-06-03T05:41:13.335Z,19.02
2017-06-03T05:42:14.771Z,19.01
2017-06-03T05:43:16.194Z,18.99
2017-06-03T05:44:17.627Z,19.14
2017-06-03T05:45:19.058Z,19.02
2017-06-03T05:46:20.490Z,18.87
2017-06-03T05:47:21.924Z,19.14
2017-06-03T05:48:23.358Z,19.08
2017-06-03T05:49:24.798Z,19.01
2017-06-03T05:50:26.224Z,19.14
2017-06-03T05:51:27.656Z,19.02
2017-06-03T05:52:29.136Z,19.05
2017-06-03T05:53:30.566Z,19.23
2017-06-03T05:54:32.012Z,19.28
2017-06-03T05:55:33.446Z,19.50
2017-06-03T05:56:34.877Z,19.39
2017-06-03T05:57:36.305Z,19.46
2017-06-03T05:58:37.747Z,19.40
2017-06-03T05:59:39.175Z,19.32
2017-06-03T06:00:40.603Z,19.39
2017-06-03T06:01:42.028Z,19.53
2017-06-03T06:02:43.467Z,19.54
2017-06-03T06:03:44.897Z,19.53
2017-06-03T06:04:46.335Z,19.46
2017-06-03T06:05:47.779Z,19.29
2017-06-03T06:06:49.216Z,19.10
2017-06-03T06:07:50.643Z,19.18
2017-06-03T06:08:52.077Z,19.31
2017-06-03T06:09:53.507Z,19.68
2017-06-03T06:10:54.937Z,19.65
2017-06-03T06:11:56.368Z,19.58
2017-06-03T06:12:57.801Z,19.63
2017-06-03T06:13:59.237Z,19.50
2017-06-03T06:15:00.662Z,19.20
2017-06-03T06:16:02.102Z,19.32
2017-06-03T06:17:03.543Z,19.46
2017-06-03T06:18:04.972Z,19.53
2017-06-03T06:19:06.408Z,19.48
2017-06-03T06:20:07.833Z,19.60
2017-06-03T06:21:09.271Z,19.57
2017-06-03T06:22:10.695Z,19.35
2017-06-03T06:23:12.127Z,19.39
2017-06-03T06:24:13.555Z,19.55
2017-06-03T06:25:14.985Z,19.61
2017-06-03T06:26:16.417Z,19.47
2017-06-03T06:27:17.846Z,19.58
2017-06-03T06:28:19.275Z,19.51
2017-06-03T06:29:20.709Z,19.63
2017-06-03T06:30:22.146Z,19.73
2017-06-03T06:31:23.580Z,19.86
2017-06-03T06:32:25.009Z,19.87
2017-06-03T06:33:26.434Z,19.88
2017-06-03T06:34:27.861Z,19.86
2017-06-03T06:35:29.299Z,20.02
2017-06-03T06:36:30.726Z,20.08
2017-06-03T06:37:32.162Z,20.02
2017-06-03T06:38:33.592Z,20.16
2017-06-03T06:39:35.029Z,20.13
2017-06-03T06:40:36.456Z,20.16
2017-06-03T06:41:37.883Z,20.21
2017-06-03T06:42:39.319Z,20.27
2017-06-03T06:43:40.745Z,20.28
2017-06-03T06:44:42.174Z,20.25
2017-06-03T06:45:43.694Z,20.23
2017-06-03T06:46:45.172Z,20.16
2017-06-03T06:47:46.616Z,20.41
2017-06-03T06:48:48.045Z,20.38
2017-06-03T06:49:49.480Z,20.28
2017-06-03T06:50:50.909Z,20.38
2017-06-03T06:51:52.337Z,20.24
2017-06-03T06:52:53.770Z,20.30
2017-06-03T06:53:55.205Z,20.16
2017-06-03T06:54:56.648Z,19.94
2017-06-03T06:55:58.076Z,19.86
2017-06-03T06:56:59.520Z,19.97
2017-06-03T06:58:00.952Z,20.09
2017-06-03T06:59:02.390Z,19.87
2017-06-03T07:00:03.817Z,19.95
2017-06-03T07:01:05.266Z,19.95
2017-06-03T07:02:06.696Z,20.03
2017-06-03T07:03:08.139Z,20.20
2017-06-03T07:04:09.580Z,20.27
2017-06-03T07:05:11.115Z,20.25
2017-06-03T07:06:12.546Z,20.31
2017-06-03T07:07:13.981Z,20.27
2017-06-03T07:08:15.418Z,20.02
2017-06-03T07:09:16.857Z,20.21
2017-06-03T07:10:18.287Z,20.35
2017-06-03T07:11:19.734Z,20.38
2017-06-03T07:12:21.166Z,20.46
2017-06-03T07:13:22.619Z,20.41
2017-06-03T07:14:24.026Z,20.24
2017-06-03T07:15:25.468Z,19.95
2017-06-03T07:16:26.989Z,20.25
2017-06-03T07:17:28.421Z,20.39
2017-06-03T07:18:29.849Z,20.23
2017-06-03T07:19:31.286Z,20.41
2017-06-03T07:20:32.727Z,20.39
2017-06-03T07:21:34.155Z,20.35
2017-06-03T07:22:35.588Z,20.43
2017-06-03T07:23:37.022Z,20.53
2017-06-03T07:24:38.459Z,20.47
2017-06-03T07:25:39.891Z,20.51
2017-06-03T07:26:41.334Z,20.61
2017-06-03T07:27:42.825Z,20.49
2017-06-03T07:28:44.256Z,20.61
2017-06-03T07:29:45.697Z,20.66
2017-06-03T07:30:47.142Z,20.58
2017-06-03T07:31:48.574Z,20.72
2017-06-03T07:32:50.017Z,20.61
2017-06-03T07:33:51.514Z,20.65
2017-06-03T07:34:52.955Z,20.34
2017-06-03T07:35:54.385Z,20.38
2017-06-03T07:36:55.813Z,20.50
2017-06-03T07:37:57.331Z,20.41
2017-06-03T07:38:58.762Z,20.50
2017-06-03T07:40:00.197Z,20.46
2017-06-03T07:41:01.627Z,20.42
2017-06-03T07:42:03.064Z,20.49
2017-06-03T07:43:04.494Z,20.76
2017-06-03T07:44:05.930Z,20.76
2017-06-03T07:45:07.452Z,20.76
2017-06-03T07:46:08.878Z,20.79
2017-06-03T07:47:10.312Z,20.77
2017-06-03T07:48:11.751Z,20.65
2017-06-03T07:49:13.183Z,20.72
2017-06-03T07:50:14.617Z,20.72
2017-06-03T07:51:16.056Z,20.83
2017-06-03T07:52:17.514Z,20.99
2017-06-03T07:53:19.667Z,21.11
2017-06-03T07:54:21.096Z,21.20
2017-06-03T07:55:22.529Z,20.95
2017-06-03T07:56:24.585Z,21.14
2017-06-03T07:57:26.016Z,21.27
2017-06-03T07:58:27.543Z,21.17
2017-06-03T07:59:28.975Z,21.16
2017-06-03T08:00:30.408Z,21.16
2017-06-03T08:01:31.838Z,21.30
2017-06-03T08:02:33.273Z,21.32
2017-06-03T08:03:34.704Z,21.29
2017-06-03T08:04:36.141Z,21.41
2017-06-03T08:05:37.568Z,21.44
2017-06-03T08:06:39.002Z,21.51
2017-06-03T08:07:40.439Z,21.61
2017-06-03T08:08:41.865Z,21.67
2017-06-03T08:09:43.299Z,21.63
2017-06-03T08:10:44.736Z,21.78
2017-06-03T08:11:46.169Z,21.76
2017-06-03T08:12:47.599Z,21.83
2017-06-03T08:13:49.031Z,21.78
2017-06-03T08:14:50.465Z,21.71
2017-06-03T08:15:51.895Z,21.63
2017-06-03T08:16:53.334Z,21.66
2017-06-03T08:17:54.773Z,21.64
2017-06-03T08:18:56.208Z,21.59
2017-06-03T08:19:57.649Z,21.45
2017-06-03T08:20:59.083Z,21.46
2017-06-03T08:22:00.520Z,21.51
2017-06-03T08:23:01.950Z,21.74
2017-06-03T08:24:03.387Z,21.76
2017-06-03T08:25:04.831Z,21.82
2017-06-03T08:26:06.269Z,21.83
2017-06-03T08:27:07.705Z,22.12
2017-06-03T08:28:09.137Z,22.20
2017-06-03T08:29:10.578Z,22.34
2017-06-03T08:30:12.013Z,22.41
2017-06-03T08:31:13.452Z,22.19
2017-06-03T08:32:14.888Z,22.29
2017-06-03T08:33:16.320Z,22.47
2017-06-03T08:34:17.759Z,22.52
2017-06-03T08:35:19.200Z,22.67
2017-06-03T08:36:20.644Z,22.44
2017-06-03T08:37:22.080Z,22.57
2017-06-03T08:38:23.512Z,22.53
2017-06-03T08:39:24.959Z,22.67
2017-06-03T08:40:26.393Z,22.60
2017-06-03T08:41:27.834Z,22.80
2017-06-03T08:42:29.268Z,22.77
2017-06-03T08:43:30.700Z,22.72
2017-06-03T08:44:32.139Z,22.75
2017-06-03T08:45:33.574Z,22.89
2017-06-03T08:46:35.066Z,22.92
2017-06-03T08:47:36.506Z,22.87
2017-06-03T08:48:37.932Z,22.90
2017-06-03T08:49:39.398Z,22.93
2017-06-03T08:50:40.814Z,22.78
2017-06-03T08:51:42.250Z,23.08
2017-06-03T08:52:43.690Z,23.08
2017-06-03T08:53:45.160Z,23.02
2017-06-03T08:54:46.590Z,22.87
2017-06-03T08:55:48.027Z,23.04
2017-06-03T08:56:49.516Z,23.42
2017-06-03T08:57:50.948Z,23.39
2017-06-03T08:58:52.391Z,23.29
2017-06-03T08:59:53.848Z,23.20
2017-06-03T09:00:55.304Z,23.23
2017-06-03T09:01:57.402Z,23.26
2017-06-03T09:02:58.844Z,23.38
2017-06-03T09:04:00.276Z,23.29
2017-06-03T09:05:01.714Z,23.42
2017-06-03T09:06:03.145Z,23.46
2017-06-03T09:07:04.579Z,23.40
2017-06-03T09:08:06.024Z,23.50
2017-06-03T09:09:07.454Z,23.75
2017-06-03T09:10:08.897Z,23.68
2017-06-03T09:11:10.332Z,23.67
2017-06-03T09:12:11.762Z,23.58
2017-06-03T09:13:13.196Z,23.57
2017-06-03T09:14:14.640Z,23.43
2017-06-03T09:15:16.074Z,23.57
2017-06-03T09:16:17.522Z,23.68
2017-06-03T09:17:18.966Z,23.57
2017-06-03T09:18:20.943Z,23.49
2017-06-03T09:19:22.378Z,23.47
2017-06-03T09:20:23.820Z,23.39
2017-06-03T09:21:25.250Z,23.49
2017-06-03T09:22:26.688Z,23.52
2017-06-03T09:23:28.121Z,23.57
2017-06-03T09:24:29.561Z,23.50
2017-06-03T09:25:31.002Z,23.12
2017-06-03T09:26:32.440Z,23.05
2017-06-03T09:27:33.881Z,23.04
2017-06-03T09:28:35.317Z,23.22
2017-06-03T09:29:36.751Z,23.42
2017-06-03T09:30:39.069Z,23.53
2017-06-03T09:31:41.925Z,23.62
2017-06-03T09:32:43.363Z,23.64
2017-06-03T09:33:44.800Z,23.70
2017-06-03T09:34:46.229Z,23.79
2017-06-03T09:35:47.669Z,23.76
2017-06-03T09:36:49.097Z,23.70
2017-06-03T09:37:50.549Z,23.76
2017-06-03T09:38:51.987Z,23.82
2017-06-03T09:39:53.427Z,23.85
2017-06-03T09:40:54.859Z,23.79
2017-06-03T09:41:56.299Z,23.83
2017-06-03T09:42:57.736Z,23.70
2017-06-03T09:43:59.169Z,23.76
2017-06-03T09:45:00.598Z,23.72
2017-06-03T09:46:02.041Z,23.71
2017-06-03T09:47:03.478Z,23.85
2017-06-03T09:48:04.918Z,23.87
2017-06-03T09:49:06.353Z,23.95
2017-06-03T09:50:07.787Z,24.12
2017-06-03T09:51:09.232Z,23.82
2017-06-03T09:52:10.672Z,23.85
2017-06-03T09:53:12.099Z,23.79
2017-06-03T09:54:13.540Z,24.00
2017-06-03T09:55:14.976Z,24.22
2017-06-03T09:56:16.408Z,24.22
2017-06-03T09:57:17.847Z,24.13
2017-06-03T09:58:19.290Z,23.86
2017-06-03T09:59:20.728Z,23.89
2017-06-03T10:00:22.171Z,23.97
2017-06-03T10:01:23.609Z,23.85
2017-06-03T10:02:25.043Z,24.02
2017-06-03T10:03:26.477Z,23.82
2017-06-03T10:04:27.919Z,24.24
2017-06-03T10:05:29.353Z,24.22
2017-06-03T10:06:30.783Z,24.34
2017-06-03T10:07:32.215Z,24.45
2017-06-03T10:08:33.660Z,24.59
2017-06-03T10:09:35.103Z,24.69
2017-06-03T10:10:36.528Z,24.69
2017-06-03T10:11:37.960Z,24.85
2017-06-03T10:12:39.405Z,24.94
2017-06-03T10:13:40.845Z,24.90
2017-06-03T10:14:42.282Z,25.07
2017-06-03T10:15:43.738Z,24.97
2017-06-03T10:16:45.167Z,25.01
2017-06-03T10:17:46.607Z,24.98
2017-06-03T10:18:48.043Z,25.07
2017-06-03T10:19:49.479Z,25.15
2017-06-03T10:20:52.388Z,25.15
2017-06-03T10:21:53.824Z,25.13
2017-06-03T10:22:55.262Z,25.00
2017-06-03T10:23:56.692Z,25.15
2017-06-03T10:24:58.130Z,25.10
2017-06-03T10:25:59.571Z,25.31
2017-06-03T10:27:01.009Z,25.42
2017-06-03T10:28:02.451Z,25.75
2017-06-03T10:29:03.887Z,25.54
2017-06-03T10:30:05.790Z,25.37
2017-06-03T10:31:07.236Z,25.53
2017-06-03T10:32:08.670Z,25.54
2017-06-03T10:33:10.606Z,25.42
2017-06-03T10:34:12.039Z,25.35
2017-06-03T10:35:13.485Z,25.68
2017-06-03T10:36:14.918Z,25.77
2017-06-03T10:37:16.361Z,25.71
2017-06-03T10:38:17.798Z,25.91
2017-06-03T10:39:19.241Z,25.94
2017-06-03T10:40:20.678Z,26.21
2017-06-03T10:41:22.112Z,26.06
2017-06-03T10:42:23.551Z,26.25
2017-06-03T10:43:24.987Z,26.17
2017-06-03T10:44:26.427Z,26.40
2017-06-03T10:45:27.867Z,26.58
2017-06-03T10:46:29.304Z,26.27
2017-06-03T10:47:30.750Z,26.43
2017-06-03T10:48:32.185Z,26.37
2017-06-03T10:49:33.630Z,26.31
2017-06-03T10:50:35.071Z,26.35
2017-06-03T10:51:36.504Z,26.54
2017-06-03T10:52:38.607Z,26.57
2017-06-03T10:53:39.323Z,26.49
2017-06-03T10:54:40.764Z,26.57
2017-06-03T10:55:42.201Z,26.59
2017-06-03T10:56:43.638Z,26.62
2017-06-03T10:57:45.067Z,26.80
2017-06-03T10:58:46.506Z,27.04
2017-06-03T10:59:47.946Z,27.39
2017-06-03T11:00:49.388Z,27.50
2017-06-03T11:01:50.831Z,27.23
2017-06-03T11:02:52.269Z,27.06
2017-06-03T11:03:53.713Z,26.87
2017-06-03T11:04:55.148Z,26.50
2017-06-03T11:05:56.585Z,26.46
2017-06-03T11:06:58.020Z,26.61
2017-06-03T11:07:59.457Z,26.21
2017-06-03T11:09:00.904Z,26.21
2017-06-03T11:10:02.346Z,26.02
2017-06-03T11:11:03.779Z,25.77
2017-06-03T11:12:05.220Z,25.67
2017-06-03T11:13:06.658Z,25.57
2017-06-03T11:14:08.100Z,25.56
2017-06-03T11:15:09.534Z,25.98
2017-06-03T11:16:10.976Z,26.50
2017-06-03T11:17:12.415Z,26.50
2017-06-03T11:18:13.859Z,26.74
2017-06-03T11:19:15.300Z,26.74
2017-06-03T11:20:16.735Z,26.67
2017-06-03T11:21:18.182Z,26.44
2017-06-03T11:22:19.618Z,26.35
2017-06-03T11:23:21.055Z,26.54
2017-06-03T11:24:22.500Z,26.49
2017-06-03T11:25:23.946Z,26.49
2017-06-03T11:26:25.384Z,26.57
2017-06-03T11:27:26.823Z,26.31
2017-06-03T11:28:28.256Z,26.43
2017-06-03T11:29:29.688Z,26.55
2017-06-03T11:30:31.121Z,26.80
2017-06-03T11:31:32.570Z,27.04
2017-06-03T11:32:33.997Z,26.96
2017-06-03T11:33:35.436Z,26.96
2017-06-03T11:34:36.873Z,26.98
2017-06-03T11:35:38.304Z,27.20
2017-06-03T11:36:39.745Z,26.95
2017-06-03T11:37:41.203Z,27.10
2017-06-03T11:38:42.641Z,27.17
2017-06-03T11:39:44.079Z,27.41
2017-06-03T11:40:45.521Z,27.50
2017-06-03T11:41:46.963Z,27.50
2017-06-03T11:42:48.403Z,27.48
2017-06-03T11:43:49.841Z,27.67
2017-06-03T11:44:51.276Z,27.77
2017-06-03T11:45:52.713Z,27.70
2017-06-03T11:46:54.147Z,27.59
2017-06-03T11:47:55.585Z,27.47
2017-06-03T11:48:57.029Z,27.62
2017-06-03T11:49:58.468Z,26.98
2017-06-03T11:50:59.903Z,26.92
2017-06-03T11:52:01.345Z,27.01
2017-06-03T11:53:02.787Z,26.92
2017-06-03T11:54:04.707Z,26.54
2017-06-03T11:55:06.144Z,26.55
2017-06-03T11:56:07.588Z,26.52
2017-06-03T11:57:09.029Z,26.79
2017-06-03T11:58:10.469Z,26.92
2017-06-03T11:59:11.923Z,26.67
2017-06-03T12:00:13.355Z,26.52
2017-06-03T12:01:14.795Z,26.43
2017-06-03T12:02:16.233Z,26.27
2017-06-03T12:03:17.672Z,26.55
2017-06-03T12:04:19.109Z,26.64
2017-06-03T12:05:20.550Z,26.92
2017-06-03T12:06:21.990Z,27.10
2017-06-03T12:07:23.430Z,27.09
2017-06-03T12:08:24.875Z,26.72
2017-06-03T12:09:26.324Z,26.55
2017-06-03T12:10:27.752Z,26.35
2017-06-03T12:11:29.194Z,26.42
2017-06-03T12:12:30.630Z,26.61
2017-06-03T12:13:32.067Z,26.74
2017-06-03T12:14:33.501Z,26.86
2017-06-03T12:15:34.936Z,26.44
2017-06-03T12:16:36.380Z,26.46
2017-06-03T12:17:37.823Z,26.37
2017-06-03T12:18:39.262Z,26.28
2017-06-03T12:19:40.700Z,26.54
2017-06-03T12:20:42.143Z,26.73
2017-06-03T12:21:43.584Z,26.87
2017-06-03T12:22:45.020Z,26.79
2017-06-03T12:23:46.455Z,26.40
2017-06-03T12:24:47.893Z,26.44
2017-06-03T12:25:49.348Z,26.68
2017-06-03T12:26:50.779Z,26.79
2017-06-03T12:27:52.217Z,26.87
2017-06-03T12:28:53.656Z,26.87
2017-06-03T12:29:55.097Z,27.05
2017-06-03T12:30:56.543Z,26.89
2017-06-03T12:31:57.982Z,26.72
2017-06-03T12:32:59.426Z,26.76
2017-06-03T12:34:00.870Z,26.32
2017-06-03T12:35:02.312Z,26.54
2017-06-03T12:36:03.747Z,26.55
2017-06-03T12:37:05.188Z,26.58
2017-06-03T12:38:06.623Z,26.67
2017-06-03T12:39:08.062Z,26.76
2017-06-03T12:40:09.499Z,26.64
2017-06-03T12:41:10.942Z,26.86
2017-06-03T12:42:12.380Z,27.14
2017-06-03T12:43:13.819Z,27.32
2017-06-03T12:44:15.262Z,27.51
2017-06-03T12:45:16.699Z,27.53
2017-06-03T12:46:18.140Z,27.76
2017-06-03T12:47:19.585Z,27.69
2017-06-03T12:48:21.025Z,27.57
2017-06-03T12:49:22.460Z,27.29
2017-06-03T12:50:23.891Z,27.21
2017-06-03T12:51:25.325Z,27.14
2017-06-03T12:52:26.763Z,26.95
2017-06-03T12:53:28.200Z,26.94
2017-06-03T12:54:29.636Z,26.58
2017-06-03T12:55:31.082Z,26.50
2017-06-03T12:56:32.516Z,26.61
2017-06-03T12:57:33.964Z,26.72
2017-06-03T12:58:35.402Z,26.50
2017-06-03T12:59:36.836Z,26.40
2017-06-03T13:00:38.280Z,26.50
2017-06-03T13:01:39.723Z,26.31
2017-06-03T13:02:41.163Z,26.57
2017-06-03T13:03:42.601Z,26.72
2017-06-03T13:04:44.040Z,26.86
2017-06-03T13:05:45.498Z,27.14
2017-06-03T13:06:46.964Z,27.21
2017-06-03T13:07:48.380Z,27.41
2017-06-03T13:08:49.821Z,27.70
2017-06-03T13:09:51.253Z,27.66
2017-06-03T13:10:52.685Z,27.69